METAR Data
IDs: Format: Raw Decoded Include TAF

Data at: 0143 UTC 20 Jan 2022

KSLI 192358Z 22009KT 7SM FEW250 17/11 A3012 RMK AO2A SLP203 T01710111 10188 20149 55004